Time;durP1;ratioP1;P1;durP2;ratioP2;P2;SDS_P1;SDS_P2;PMS_P1;PMS_P2;Temp;Humidity;BMP_temperature;BMP_pressure;BME280_temperature;BME280_humidity;BME280_pressure;Samples;Min_cycle;Max_cycle;Signal;HPM_P1;HPM_P2
2022/08/01 00:01:35;;;;;;;8.15;7.35;;;;;;;;;;4948562;28;20199;-75
2022/08/01 00:04:04;;;;;;;7.50;6.90;;;;;;;;;;4945869;29;20621;-76
2022/08/01 00:06:33;;;;;;;7.38;6.68;;;;;;;;;;4953501;29;20225;-75
2022/08/01 00:09:01;;;;;;;8.68;6.65;;;;;;;;;;4954581;28;20364;-76
2022/08/01 00:11:30;;;;;;;7.28;6.55;;;;;;;;;;4954278;28;20252;-75
2022/08/01 00:13:58;;;;;;;7.72;6.70;;;;;;;;;;4951703;28;20645;-75
2022/08/01 00:16:27;;;;;;;6.93;6.07;;;;;;;;;;4954601;29;20702;-75
2022/08/01 00:18:56;;;;;;;7.80;6.10;;;;;;;;;;4950330;28;20226;-75
2022/08/01 00:21:25;;;;;;;7.65;6.85;;;;;;;;;;4941000;28;20203;-75
2022/08/01 00:23:53;;;;;;;7.00;6.40;;;;;;;;;;4946500;29;20203;-75
2022/08/01 00:26:22;;;;;;;6.88;6.18;;;;;;;;;;4954280;29;20211;-75
2022/08/01 00:28:50;;;;;;;9.80;7.00;;;;;;;;;;4950692;29;20222;-75
2022/08/01 00:31:19;;;;;;;7.78;7.05;;;;;;;;;;4953448;28;20725;-75
2022/08/01 00:33:48;;;;;;;8.00;7.22;;;;;;;;;;4952196;28;20207;-75
2022/08/01 00:36:18;;;;;;;8.32;7.30;;;;;;;;;;4955013;28;20597;-75
2022/08/01 00:38:46;;;;;;;7.88;7.18;;;;;;;;;;4954683;29;20656;-75
2022/08/01 00:41:15;;;;;;;7.40;6.80;;;;;;;;;;4954500;28;20616;-75
2022/08/01 00:43:43;;;;;;;8.02;7.22;;;;;;;;;;4952098;28;20233;-75
2022/08/01 00:46:12;;;;;;;7.97;7.28;;;;;;;;;;4954116;28;20214;-75
2022/08/01 00:48:40;;;;;;;8.40;7.60;;;;;;;;;;4952271;28;20229;-75
2022/08/01 00:51:09;;;;;;;9.98;7.43;;;;;;;;;;4958927;28;20250;-75
2022/08/01 00:53:39;;;;;;;8.43;7.60;;;;;;;;;;4952294;29;20666;-76
2022/08/01 00:56:20;;;;;;;10.63;8.38;;;;;;;;;;4956571;29;20580;-74
2022/08/01 00:58:48;;;;;;;10.98;8.45;;;;;;;;;;4958185;28;20277;-75
2022/08/01 01:01:17;;;;;;;8.32;7.53;;;;;;;;;;4945064;29;20294;-75
2022/08/01 01:03:46;;;;;;;9.00;7.53;;;;;;;;;;4949047;29;20202;-76
2022/08/01 01:06:45;;;;;;;8.98;7.95;;;;;;;;;;4958145;29;20211;-75
2022/08/01 01:09:20;;;;;;;11.30;8.45;;;;;;;;;;4957409;28;20229;-75
2022/08/01 01:11:53;;;;;;;9.50;8.55;;;;;;;;;;4947659;28;20758;-75
2022/08/01 01:14:25;;;;;;;9.57;8.57;;;;;;;;;;4953542;29;20206;-76
2022/08/01 01:16:55;;;;;;;10.68;9.02;;;;;;;;;;4953206;28;20207;-75
2022/08/01 01:19:26;;;;;;;9.88;8.20;;;;;;;;;;4940879;29;20214;-75
2022/08/01 01:22:19;;;;;;;8.55;7.78;;;;;;;;;;4947037;29;20206;-75
2022/08/01 01:24:53;;;;;;;9.57;7.65;;;;;;;;;;4957387;29;20202;-76
2022/08/01 01:27:25;;;;;;;9.60;7.30;;;;;;;;;;4949492;29;20421;-75
2022/08/01 01:29:57;;;;;;;8.65;7.47;;;;;;;;;;4958107;29;20203;-75
2022/08/01 01:32:33;;;;;;;9.40;7.55;;;;;;;;;;4938624;29;20229;-75
2022/08/01 01:35:03;;;;;;;9.30;7.88;;;;;;;;;;4956399;29;20293;-75
2022/08/01 01:37:33;;;;;;;8.90;8.07;;;;;;;;;;4949194;28;20235;-75
2022/08/01 01:40:03;;;;;;;10.40;9.30;;;;;;;;;;4956456;29;20560;-75
2022/08/01 01:42:32;;;;;;;11.35;9.23;;;;;;;;;;4958005;28;20655;-75
2022/08/01 01:45:04;;;;;;;11.45;10.07;;;;;;;;;;4956213;28;20221;-76
2022/08/01 01:47:33;;;;;;;10.77;9.68;;;;;;;;;;4957466;29;20236;-76
2022/08/01 01:50:01;;;;;;;12.27;10.25;;;;;;;;;;4956965;28;20218;-76
2022/08/01 01:52:31;;;;;;;10.82;9.73;;;;;;;;;;4957265;29;20571;-76
2022/08/01 01:54:59;;;;;;;10.50;9.50;;;;;;;;;;4956426;29;20715;-76
2022/08/01 01:57:29;;;;;;;10.57;9.45;;;;;;;;;;4956869;28;20222;-76
2022/08/01 01:59:59;;;;;;;10.82;9.73;;;;;;;;;;4956539;28;20220;-75
2022/08/01 02:02:29;;;;;;;12.65;10.88;;;;;;;;;;4956882;28;20203;-76
2022/08/01 02:04:59;;;;;;;11.75;10.35;;;;;;;;;;4953575;29;20650;-75
2022/08/01 02:07:28;;;;;;;10.52;9.43;;;;;;;;;;4957129;28;20230;-75
2022/08/01 02:09:57;;;;;;;11.07;10.07;;;;;;;;;;4949915;29;20211;-76
2022/08/01 02:12:25;;;;;;;12.43;11.13;;;;;;;;;;4938298;29;20703;-76
2022/08/01 02:14:54;;;;;;;11.98;10.68;;;;;;;;;;4952562;29;20210;-76
2022/08/01 02:17:25;;;;;;;11.55;10.32;;;;;;;;;;4956888;28;20234;-75
2022/08/01 02:19:55;;;;;;;10.98;9.85;;;;;;;;;;4952186;28;20687;-75
2022/08/01 02:22:27;;;;;;;9.98;8.70;;;;;;;;;;4957125;28;20675;-76
2022/08/01 02:25:01;;;;;;;9.65;8.73;;;;;;;;;;4956079;29;20214;-75
2022/08/01 02:27:31;;;;;;;10.40;9.40;;;;;;;;;;4957286;28;20273;-75
2022/08/01 02:30:01;;;;;;;10.45;8.90;;;;;;;;;;4956025;29;20206;-75
2022/08/01 02:32:32;;;;;;;9.93;8.43;;;;;;;;;;4956918;28;20230;-76
2022/08/01 02:35:03;;;;;;;9.45;8.55;;;;;;;;;;4948050;28;20206;-76
2022/08/01 02:37:35;;;;;;;8.93;7.95;;;;;;;;;;4957065;29;20579;-75
2022/08/01 02:40:04;;;;;;;10.60;8.38;;;;;;;;;;4940542;28;20214;-75
2022/08/01 02:42:33;;;;;;;9.55;8.13;;;;;;;;;;4956815;29;20202;-76
2022/08/01 02:45:03;;;;;;;9.02;8.20;;;;;;;;;;4955653;28;20246;-76
2022/08/01 02:47:33;;;;;;;9.15;7.95;;;;;;;;;;4956401;29;20234;-76
2022/08/01 02:50:03;;;;;;;9.55;8.35;;;;;;;;;;4945219;28;20557;-75
2022/08/01 02:52:32;;;;;;;9.02;7.40;;;;;;;;;;4956368;28;20225;-76
2022/08/01 02:55:01;;;;;;;9.25;8.20;;;;;;;;;;4956329;29;20257;-76
2022/08/01 02:57:31;;;;;;;9.82;8.88;;;;;;;;;;4955810;29;20226;-76
2022/08/01 03:00:19;;;;;;;9.38;7.90;;;;;;;;;;4951860;29;20615;-75
2022/08/01 03:02:54;;;;;;;9.73;8.43;;;;;;;;;;4955580;29;20254;-76
2022/08/01 03:05:25;;;;;;;10.07;8.55;;;;;;;;;;4956208;29;20242;-75
2022/08/01 03:07:55;;;;;;;8.18;7.38;;;;;;;;;;4955689;29;20233;-76
2022/08/01 03:10:30;;;;;;;8.90;7.90;;;;;;;;;;4943447;29;20202;-76
2022/08/01 03:13:00;;;;;;;9.88;8.07;;;;;;;;;;4955810;29;20226;-75
2022/08/01 03:15:31;;;;;;;7.93;7.15;;;;;;;;;;4955683;28;20210;-76
2022/08/01 03:18:00;;;;;;;7.50;6.53;;;;;;;;;;4967285;28;20226;-75
2022/08/01 03:20:31;;;;;;;8.30;7.50;;;;;;;;;;4937279;29;20207;-75
2022/08/01 03:23:01;;;;;;;7.97;7.18;;;;;;;;;;4944995;29;20206;-76
2022/08/01 03:25:30;;;;;;;7.72;7.00;;;;;;;;;;4939829;29;20206;-75
2022/08/01 03:28:00;;;;;;;9.35;6.97;;;;;;;;;;4947950;28;20712;-75
2022/08/01 03:30:29;;;;;;;8.02;7.18;;;;;;;;;;4939901;29;20202;-75
2022/08/01 03:32:58;;;;;;;8.40;7.43;;;;;;;;;;4966715;28;20288;-75
2022/08/01 03:35:30;;;;;;;9.77;6.70;;;;;;;;;;4950378;29;20203;-75
2022/08/01 03:38:01;;;;;;;8.20;6.97;;;;;;;;;;4955719;29;20222;-75
2022/08/01 03:40:48;;;;;;;8.15;7.30;;;;;;;;;;4946312;29;20257;-76
2022/08/01 03:43:18;;;;;;;11.20;7.55;;;;;;;;;;4955721;28;20198;-76
2022/08/01 03:45:48;;;;;;;8.23;7.43;;;;;;;;;;4960493;28;20209;-76
2022/08/01 03:48:18;;;;;;;8.30;6.88;;;;;;;;;;4961457;28;20237;-75
2022/08/01 03:50:48;;;;;;;6.85;6.15;;;;;;;;;;4955622;29;20630;-76
2022/08/01 03:53:22;;;;;;;6.68;5.85;;;;;;;;;;4955071;29;20230;-76
2022/08/01 03:55:51;;;;;;;6.40;5.60;;;;;;;;;;4955526;29;20261;-75
2022/08/01 03:58:19;;;;;;;6.35;5.53;;;;;;;;;;4955218;29;20277;-76
2022/08/01 04:00:48;;;;;;;7.82;5.65;;;;;;;;;;4955131;28;20704;-75
2022/08/01 04:03:17;;;;;;;5.68;5.18;;;;;;;;;;4948989;29;20217;-76
2022/08/01 04:05:46;;;;;;;5.93;5.32;;;;;;;;;;4954891;28;20214;-75
2022/08/01 04:08:14;;;;;;;5.55;5.00;;;;;;;;;;4955294;29;20237;-75
2022/08/01 04:10:44;;;;;;;6.43;5.13;;;;;;;;;;4954871;29;20210;-77
2022/08/01 04:13:13;;;;;;;5.80;5.30;;;;;;;;;;4955020;29;20252;-76
2022/08/01 04:15:42;;;;;;;5.57;5.07;;;;;;;;;;4960307;28;20277;-75
2022/08/01 04:18:11;;;;;;;6.72;5.78;;;;;;;;;;4954751;28;20230;-75
2022/08/01 04:20:39;;;;;;;5.25;4.60;;;;;;;;;;4955430;28;20219;-75
2022/08/01 04:23:08;;;;;;;6.43;4.90;;;;;;;;;;4954458;28;20285;-76
2022/08/01 04:25:39;;;;;;;5.93;5.32;;;;;;;;;;4954844;29;20231;-75
2022/08/01 04:28:10;;;;;;;6.30;5.55;;;;;;;;;;4954631;28;20234;-76
2022/08/01 04:30:39;;;;;;;7.53;5.38;;;;;;;;;;4939688;29;20203;-75
2022/08/01 04:33:09;;;;;;;6.30;5.63;;;;;;;;;;4954579;29;20294;-76
2022/08/01 04:35:38;;;;;;;7.80;5.78;;;;;;;;;;4955377;29;20210;-75
2022/08/01 04:38:30;;;;;;;6.03;5.35;;;;;;;;;;4954267;29;20261;-76
2022/08/01 04:40:59;;;;;;;7.05;6.40;;;;;;;;;;4954815;28;20615;-75
2022/08/01 04:43:38;;;;;;;5.88;5.35;;;;;;;;;;4952929;28;20210;-76
2022/08/01 04:46:07;;;;;;;8.98;6.10;;;;;;;;;;4954813;29;20214;-76
2022/08/01 04:48:37;;;;;;;7.03;6.43;;;;;;;;;;4954280;29;20273;-75
2022/08/01 04:51:06;;;;;;;7.85;6.45;;;;;;;;;;4955146;29;20631;-76
2022/08/01 04:53:34;;;;;;;7.25;6.13;;;;;;;;;;4954649;29;20232;-75
2022/08/01 04:56:03;;;;;;;7.63;6.80;;;;;;;;;;4954858;29;20730;-75
2022/08/01 04:58:31;;;;;;;6.75;6.07;;;;;;;;;;4945928;29;20269;-77
2022/08/01 05:01:01;;;;;;;6.28;5.28;;;;;;;;;;4947861;29;20684;-76
2022/08/01 05:03:30;;;;;;;8.93;7.57;;;;;;;;;;4954366;29;20236;-76
2022/08/01 05:06:03;;;;;;;7.65;6.88;;;;;;;;;;4954732;29;20683;-76
2022/08/01 05:08:31;;;;;;;5.50;5.00;;;;;;;;;;4939386;29;20277;-76
2022/08/01 05:11:00;;;;;;;6.07;5.28;;;;;;;;;;4936560;29;20211;-75
2022/08/01 05:13:30;;;;;;;6.80;5.47;;;;;;;;;;4954253;29;20717;-75
2022/08/01 05:15:58;;;;;;;6.15;5.55;;;;;;;;;;4954564;29;20317;-75
2022/08/01 05:18:29;;;;;;;7.25;5.55;;;;;;;;;;4953464;28;20285;-76
2022/08/01 05:20:58;;;;;;;8.88;5.30;;;;;;;;;;4954083;29;20210;-75
2022/08/01 05:23:26;;;;;;;6.82;5.75;;;;;;;;;;4953754;29;20203;-76
2022/08/01 05:26:10;;;;;;;6.78;5.10;;;;;;;;;;4952970;29;20278;-75
2022/08/01 05:28:42;;;;;;;5.82;5.22;;;;;;;;;;4949088;29;20223;-76
2022/08/01 05:31:10;;;;;;;6.18;5.50;;;;;;;;;;4950464;28;20609;-77
2022/08/01 05:33:40;;;;;;;6.35;5.70;;;;;;;;;;4946303;28;20629;-76
2022/08/01 05:36:08;;;;;;;6.82;6.13;;;;;;;;;;4954259;28;20199;-76
2022/08/01 05:38:37;;;;;;;11.18;8.60;;;;;;;;;;4953249;28;20226;-76
2022/08/01 05:41:06;;;;;;;7.40;5.57;;;;;;;;;;4954787;28;20210;-76
2022/08/01 05:43:34;;;;;;;6.97;5.53;;;;;;;;;;4957878;28;20215;-76
2022/08/01 05:46:02;;;;;;;6.50;5.57;;;;;;;;;;4957809;29;20206;-76
2022/08/01 05:48:32;;;;;;;7.30;6.60;;;;;;;;;;4956146;28;20250;-76
2022/08/01 05:51:02;;;;;;;8.80;6.60;;;;;;;;;;4956790;28;20210;-75
2022/08/01 05:53:30;;;;;;;7.18;6.35;;;;;;;;;;4957208;28;20238;-76
2022/08/01 05:55:59;;;;;;;8.32;6.85;;;;;;;;;;4957491;29;20236;-75
2022/08/01 05:58:27;;;;;;;7.50;6.75;;;;;;;;;;4958182;28;20227;-76
2022/08/01 06:00:55;;;;;;;5.20;4.80;;;;;;;;;;4963468;28;20205;-75
2022/08/01 06:03:24;;;;;;;4.85;3.53;;;;;;;;;;4964223;28;20206;-76
2022/08/01 06:05:53;;;;;;;3.67;3.08;;;;;;;;;;4955391;28;20214;-75
2022/08/01 06:08:23;;;;;;;3.85;3.55;;;;;;;;;;4957675;28;20237;-75
2022/08/01 06:10:51;;;;;;;4.90;4.40;;;;;;;;;;4958008;28;20218;-75
2022/08/01 06:13:20;;;;;;;4.78;4.35;;;;;;;;;;4941578;28;20223;-75
2022/08/01 06:15:48;;;;;;;4.50;4.10;;;;;;;;;;4957110;29;20226;-76
2022/08/01 06:18:17;;;;;;;4.45;4.05;;;;;;;;;;4956251;28;20675;-75
2022/08/01 06:20:45;;;;;;;4.72;4.20;;;;;;;;;;4957369;29;20668;-75
2022/08/01 06:23:15;;;;;;;5.07;4.57;;;;;;;;;;4958129;29;20675;-76
2022/08/01 06:26:01;;;;;;;4.80;4.40;;;;;;;;;;4951254;28;20250;-76
2022/08/01 06:28:29;;;;;;;4.68;4.07;;;;;;;;;;4955707;29;20233;-75
2022/08/01 06:30:59;;;;;;;4.63;4.22;;;;;;;;;;4951107;28;20213;-75
2022/08/01 06:33:27;;;;;;;4.18;3.88;;;;;;;;;;4948666;28;20218;-75
2022/08/01 06:35:56;;;;;;;4.88;4.47;;;;;;;;;;4955808;28;20370;-75
2022/08/01 06:38:24;;;;;;;4.30;3.90;;;;;;;;;;4955287;28;20687;-75
2022/08/01 06:40:53;;;;;;;4.32;3.92;;;;;;;;;;4955431;28;20203;-75
2022/08/01 06:43:22;;;;;;;4.10;3.70;;;;;;;;;;4955919;28;20207;-76
2022/08/01 06:45:51;;;;;;;4.93;4.50;;;;;;;;;;4955771;28;20726;-76
2022/08/01 06:48:20;;;;;;;4.50;4.03;;;;;;;;;;4955789;28;20238;-76
2022/08/01 06:50:48;;;;;;;4.80;4.10;;;;;;;;;;4956946;29;20252;-75
2022/08/01 06:53:17;;;;;;;4.40;4.10;;;;;;;;;;4956480;28;20206;-76
2022/08/01 06:55:45;;;;;;;5.47;4.05;;;;;;;;;;4956718;28;20217;-75
2022/08/01 06:58:14;;;;;;;5.47;4.50;;;;;;;;;;4956690;28;20230;-76
2022/08/01 07:00:44;;;;;;;4.97;4.57;;;;;;;;;;4946055;28;20199;-75
2022/08/01 07:03:13;;;;;;;5.03;4.60;;;;;;;;;;4951700;28;20257;-76
2022/08/01 07:05:42;;;;;;;4.80;4.40;;;;;;;;;;4953094;28;20206;-76
2022/08/01 07:08:11;;;;;;;4.63;4.32;;;;;;;;;;4940853;29;20277;-76
2022/08/01 07:10:39;;;;;;;4.75;4.35;;;;;;;;;;4954883;28;20235;-76
2022/08/01 07:13:07;;;;;;;4.63;4.22;;;;;;;;;;4956018;28;20214;-76
2022/08/01 07:15:36;;;;;;;4.72;4.38;;;;;;;;;;4955871;28;20222;-76
2022/08/01 07:18:06;;;;;;;5.15;4.75;;;;;;;;;;4955705;28;20221;-76
2022/08/01 07:20:34;;;;;;;4.80;4.45;;;;;;;;;;4956322;28;20207;-76
2022/08/01 07:23:20;;;;;;;4.30;4.10;;;;;;;;;;4953334;29;20725;-76
2022/08/01 07:25:57;;;;;;;4.57;4.18;;;;;;;;;;4953644;28;20221;-76
2022/08/01 07:28:28;;;;;;;3.80;3.50;;;;;;;;;;4955725;28;20615;-76
2022/08/01 07:30:56;;;;;;;3.92;3.63;;;;;;;;;;4955795;28;20655;-76
2022/08/01 07:33:26;;;;;;;3.75;3.33;;;;;;;;;;4955108;28;20206;-75
2022/08/01 07:36:15;;;;;;;3.63;3.35;;;;;;;;;;4964780;28;20323;-76
2022/08/01 07:38:43;;;;;;;3.30;3.00;;;;;;;;;;4955665;28;20227;-76
2022/08/01 07:41:12;;;;;;;3.30;2.92;;;;;;;;;;4955180;28;20206;-75
2022/08/01 07:43:40;;;;;;;3.40;3.10;;;;;;;;;;4955540;28;20214;-75
2022/08/01 07:46:22;;;;;;;3.30;3.00;;;;;;;;;;4958503;28;20205;-75
2022/08/01 07:48:52;;;;;;;3.13;2.92;;;;;;;;;;4970584;28;20304;-75
2022/08/01 07:51:20;;;;;;;2.90;2.60;;;;;;;;;;4955845;28;20227;-75
2022/08/01 07:53:49;;;;;;;2.88;2.58;;;;;;;;;;4955650;29;20214;-76
2022/08/01 07:56:17;;;;;;;3.08;2.38;;;;;;;;;;4954254;28;20643;-76
2022/08/01 07:58:46;;;;;;;2.42;2.22;;;;;;;;;;4954340;28;20234;-76
2022/08/01 08:01:14;;;;;;;2.78;2.58;;;;;;;;;;4952919;28;20206;-75
2022/08/01 08:03:43;;;;;;;4.25;2.50;;;;;;;;;;4950584;28;20198;-75
2022/08/01 08:06:13;;;;;;;2.38;2.15;;;;;;;;;;4954362;28;20660;-76
2022/08/01 08:08:41;;;;;;;2.50;2.30;;;;;;;;;;4956426;28;20222;-74
2022/08/01 08:11:10;;;;;;;3.00;2.80;;;;;;;;;;4955497;28;20663;-75
2022/08/01 08:13:38;;;;;;;3.42;3.08;;;;;;;;;;4959906;28;20210;-75
2022/08/01 08:16:07;;;;;;;3.08;2.88;;;;;;;;;;4950378;28;20241;-75
2022/08/01 08:18:35;;;;;;;2.40;2.30;;;;;;;;;;4944094;28;20734;-76
2022/08/01 08:21:05;;;;;;;3.28;2.50;;;;;;;;;;4951330;29;20663;-76
2022/08/01 08:26:23;;;;;;;2.97;2.70;;;;;;;;;;4943318;28;20211;-74
2022/08/01 08:28:51;;;;;;;2.45;2.25;;;;;;;;;;4950722;28;20717;-75
2022/08/01 08:31:20;;;;;;;2.70;2.47;;;;;;;;;;4955760;28;20713;-75
2022/08/01 08:34:08;;;;;;;2.85;2.30;;;;;;;;;;4960529;28;20269;-75
2022/08/01 08:36:36;;;;;;;1.67;1.58;;;;;;;;;;4956305;28;20218;-76
2022/08/01 08:39:07;;;;;;;3.30;1.20;;;;;;;;;;4942966;28;20227;-75
2022/08/01 08:41:36;;;;;;;1.40;1.13;;;;;;;;;;4954641;29;20217;-75
2022/08/01 08:44:06;;;;;;;1.30;1.20;;;;;;;;;;4952168;28;20266;-75
2022/08/01 08:46:41;;;;;;;3.03;1.40;;;;;;;;;;4954913;28;20206;-75
2022/08/01 08:49:10;;;;;;;2.00;1.30;;;;;;;;;;4953373;28;20249;-75
2022/08/01 08:51:39;;;;;;;1.40;1.25;;;;;;;;;;4954444;28;20216;-75
2022/08/01 08:54:12;;;;;;;2.70;1.33;;;;;;;;;;4944661;29;20262;-75
2022/08/01 08:56:41;;;;;;;2.28;1.50;;;;;;;;;;4954082;28;20221;-76
2022/08/01 08:59:10;;;;;;;1.65;1.25;;;;;;;;;;4951493;29;20574;-77
2022/08/01 09:01:38;;;;;;;3.88;1.42;;;;;;;;;;4955894;28;20214;-76
2022/08/01 09:04:07;;;;;;;1.90;1.50;;;;;;;;;;4955262;29;20659;-77
2022/08/01 09:06:35;;;;;;;1.80;1.40;;;;;;;;;;4955170;29;20198;-76
2022/08/01 09:09:05;;;;;;;1.65;1.38;;;;;;;;;;4956000;28;20233;-76
2022/08/01 09:11:35;;;;;;;1.77;1.40;;;;;;;;;;4958198;29;20211;-76
2022/08/01 09:14:05;;;;;;;2.00;1.23;;;;;;;;;;4951860;28;20548;-77
2022/08/01 09:16:34;;;;;;;1.52;1.30;;;;;;;;;;4958351;29;20223;-77
2022/08/01 09:19:09;;;;;;;1.70;1.50;;;;;;;;;;4958380;29;20237;-77
2022/08/01 09:21:59;;;;;;;1.52;1.40;;;;;;;;;;4955600;29;20215;-76
2022/08/01 09:24:28;;;;;;;1.30;1.20;;;;;;;;;;4941648;29;20203;-77
2022/08/01 09:27:00;;;;;;;1.67;1.40;;;;;;;;;;4939564;29;20187;-76
2022/08/01 09:29:32;;;;;;;2.05;1.30;;;;;;;;;;4939125;29;20250;-75
2022/08/01 09:32:06;;;;;;;1.25;1.15;;;;;;;;;;4941290;29;20566;-76
2022/08/01 09:34:46;;;;;;;2.35;1.65;;;;;;;;;;4957808;29;20222;-76
2022/08/01 09:37:17;;;;;;;1.95;1.60;;;;;;;;;;4958125;29;20234;-76
2022/08/01 09:39:57;;;;;;;2.55;1.50;;;;;;;;;;4958675;29;20186;-77
2022/08/01 09:42:31;;;;;;;2.22;1.60;;;;;;;;;;4947068;29;20233;-76
2022/08/01 09:45:01;;;;;;;3.17;1.70;;;;;;;;;;4942599;29;20596;-76
2022/08/01 09:47:39;;;;;;;5.13;1.55;;;;;;;;;;4958141;29;20233;-76
2022/08/01 09:50:08;;;;;;;2.63;1.90;;;;;;;;;;4938946;29;20246;-76
2022/08/01 09:52:38;;;;;;;2.33;1.80;;;;;;;;;;4938754;29;20195;-77
2022/08/01 09:55:10;;;;;;;3.72;1.90;;;;;;;;;;4938825;29;20245;-76
2022/08/01 09:57:41;;;;;;;3.08;1.70;;;;;;;;;;4951663;29;20305;-76
2022/08/01 10:00:18;;;;;;;2.88;1.77;;;;;;;;;;4958018;28;20211;-76
2022/08/01 10:03:20;;;;;;;3.20;1.90;;;;;;;;;;4956651;28;20206;-76
2022/08/01 10:05:49;;;;;;;2.22;1.83;;;;;;;;;;4950257;29;20198;-76
2022/08/01 10:08:18;;;;;;;4.55;2.40;;;;;;;;;;4964615;28;20230;-76
2022/08/01 10:11:05;;;;;;;3.83;2.28;;;;;;;;;;4948798;29;20198;-76
2022/08/01 10:13:37;;;;;;;3.65;2.50;;;;;;;;;;4957010;28;20233;-77
2022/08/01 10:16:10;;;;;;;6.78;2.67;;;;;;;;;;4954187;29;20227;-75
2022/08/01 10:18:40;;;;;;;4.82;2.65;;;;;;;;;;4948817;29;20593;-77
2022/08/01 10:21:09;;;;;;;6.85;2.78;;;;;;;;;;4957251;28;20663;-76
2022/08/01 10:23:38;;;;;;;3.63;2.67;;;;;;;;;;4957911;28;20218;-76
2022/08/01 10:26:09;;;;;;;4.88;2.85;;;;;;;;;;4957757;29;20546;-77
2022/08/01 10:28:39;;;;;;;4.28;2.72;;;;;;;;;;4953060;29;20223;-77
2022/08/01 10:31:08;;;;;;;4.57;2.95;;;;;;;;;;4961420;28;20209;-76
2022/08/01 10:33:42;;;;;;;3.60;2.75;;;;;;;;;;4957514;28;20191;-76
2022/08/01 10:36:21;;;;;;;5.18;3.40;;;;;;;;;;4976777;28;20257;-76
2022/08/01 10:38:52;;;;;;;4.55;3.20;;;;;;;;;;4969994;28;20691;-76
2022/08/01 10:41:22;;;;;;;5.45;3.85;;;;;;;;;;4953599;29;20207;-77
2022/08/01 10:43:53;;;;;;;6.88;3.50;;;;;;;;;;4937857;29;20297;-76
2022/08/01 10:46:22;;;;;;;4.40;3.17;;;;;;;;;;4944045;29;20667;-76
2022/08/01 10:48:56;;;;;;;5.85;3.72;;;;;;;;;;4956728;29;20238;-76
2022/08/01 10:51:26;;;;;;;6.95;3.60;;;;;;;;;;4957015;28;20194;-76
2022/08/01 10:54:15;;;;;;;6.47;3.92;;;;;;;;;;4956773;29;20198;-76
2022/08/01 10:56:45;;;;;;;4.55;3.67;;;;;;;;;;4963558;28;20678;-76
2022/08/01 10:59:21;;;;;;;8.07;4.50;;;;;;;;;;4937741;29;20191;-76
2022/08/01 11:02:10;;;;;;;6.10;4.55;;;;;;;;;;4937423;29;20616;-76
2022/08/01 11:04:44;;;;;;;7.72;4.70;;;;;;;;;;4937596;29;20668;-76
2022/08/01 11:07:15;;;;;;;6.22;4.70;;;;;;;;;;4938194;29;20226;-76
2022/08/01 11:09:44;;;;;;;6.22;4.95;;;;;;;;;;4955314;29;20664;-76
2022/08/01 11:12:19;;;;;;;7.13;4.57;;;;;;;;;;4955717;29;20246;-75
2022/08/01 11:15:11;;;;;;;6.65;3.90;;;;;;;;;;4959823;29;20203;-75
2022/08/01 11:17:47;;;;;;;4.15;3.10;;;;;;;;;;4956347;29;20230;-76
2022/08/01 11:20:17;;;;;;;4.47;3.20;;;;;;;;;;4956487;29;20186;-76
2022/08/01 11:23:06;;;;;;;5.47;3.33;;;;;;;;;;4956337;29;20257;-76
2022/08/01 11:25:49;;;;;;;5.55;3.83;;;;;;;;;;4936809;29;20211;-76
2022/08/01 11:28:38;;;;;;;7.13;3.60;;;;;;;;;;4940878;29;20244;-76
2022/08/01 11:31:28;;;;;;;6.80;3.70;;;;;;;;;;4955825;28;20558;-76
2022/08/01 11:33:58;;;;;;;6.80;3.70;;;;;;;;;;4956417;29;20651;-76
2022/08/01 11:36:30;;;;;;;5.82;3.47;;;;;;;;;;4947439;29;20691;-76
2022/08/01 11:39:19;;;;;;;7.57;3.75;;;;;;;;;;4939002;29;20239;-76
2022/08/01 11:41:48;;;;;;;5.45;3.58;;;;;;;;;;4943283;29;20326;-76
2022/08/01 11:44:19;;;;;;;4.93;3.25;;;;;;;;;;4955423;28;20214;-76
2022/08/01 11:46:56;;;;;;;7.70;3.70;;;;;;;;;;4956169;29;20636;-76
2022/08/01 11:49:34;;;;;;;5.88;3.97;;;;;;;;;;4955845;28;20210;-76
2022/08/01 11:52:05;;;;;;;5.95;3.88;;;;;;;;;;4955944;29;20191;-76
2022/08/01 11:54:35;;;;;;;4.75;3.60;;;;;;;;;;4955888;29;20359;-76
2022/08/01 11:57:05;;;;;;;4.95;3.40;;;;;;;;;;4955308;29;20304;-76
2022/08/01 11:59:39;;;;;;;5.95;3.33;;;;;;;;;;4955293;29;20281;-77
2022/08/01 12:02:20;;;;;;;9.23;3.60;;;;;;;;;;4955726;29;20277;-76
2022/08/01 12:05:00;;;;;;;5.68;3.25;;;;;;;;;;4955446;29;20202;-76
2022/08/01 12:07:30;;;;;;;4.85;3.28;;;;;;;;;;4955323;29;20683;-76
2022/08/01 12:10:01;;;;;;;6.45;3.17;;;;;;;;;;4965863;28;20205;-76
2022/08/01 12:12:30;;;;;;;4.72;2.85;;;;;;;;;;4974942;28;20639;-76
2022/08/01 12:15:00;;;;;;;6.35;3.00;;;;;;;;;;4955289;28;20218;-76
2022/08/01 12:17:30;;;;;;;4.93;2.97;;;;;;;;;;4947922;29;20303;-76
2022/08/01 12:20:00;;;;;;;7.07;3.40;;;;;;;;;;4956414;28;20667;-76
2022/08/01 12:22:28;;;;;;;6.93;3.08;;;;;;;;;;4955326;29;20643;-76
2022/08/01 12:24:57;;;;;;;6.85;3.47;;;;;;;;;;4954508;28;20199;-76
2022/08/01 12:27:29;;;;;;;7.53;3.33;;;;;;;;;;4954723;29;20219;-76
2022/08/01 12:29:57;;;;;;;7.28;3.10;;;;;;;;;;4943808;28;20199;-76
2022/08/01 12:32:29;;;;;;;7.65;3.45;;;;;;;;;;4942536;28;20202;-76
2022/08/01 12:35:05;;;;;;;7.10;3.33;;;;;;;;;;4955311;29;20194;-76
2022/08/01 12:37:37;;;;;;;5.63;3.10;;;;;;;;;;4954820;29;20308;-76
2022/08/01 12:40:11;;;;;;;6.57;3.30;;;;;;;;;;4954953;29;20218;-76
2022/08/01 12:42:40;;;;;;;6.95;3.25;;;;;;;;;;4955881;28;20725;-76
2022/08/01 12:45:10;;;;;;;6.55;3.30;;;;;;;;;;4958879;28;20597;-76
2022/08/01 12:47:38;;;;;;;6.20;2.88;;;;;;;;;;4958980;29;20227;-76
2022/08/01 12:50:10;;;;;;;4.93;3.13;;;;;;;;;;4959040;29;20651;-76
2022/08/01 12:52:38;;;;;;;6.55;3.17;;;;;;;;;;4959063;28;20195;-76
2022/08/01 12:55:09;;;;;;;6.47;3.40;;;;;;;;;;4958931;28;20649;-76
2022/08/01 12:57:45;;;;;;;6.22;2.70;;;;;;;;;;4959307;29;20234;-77
2022/08/01 13:00:15;;;;;;;7.63;3.00;;;;;;;;;;4957964;29;20202;-75
2022/08/01 13:02:46;;;;;;;8.35;2.90;;;;;;;;;;4962663;28;20773;-76
2022/08/01 13:05:19;;;;;;;9.48;3.05;;;;;;;;;;4975151;28;20194;-75
2022/08/01 13:07:49;;;;;;;7.15;2.78;;;;;;;;;;4962403;28;20222;-76
2022/08/01 13:10:25;;;;;;;5.15;2.50;;;;;;;;;;4950260;28;20611;-74
2022/08/01 13:12:55;;;;;;;5.82;2.60;;;;;;;;;;4948006;29;20723;-76
2022/08/01 13:15:25;;;;;;;6.72;2.60;;;;;;;;;;4937736;29;20203;-75
2022/08/01 13:17:54;;;;;;;4.55;2.63;;;;;;;;;;4942522;29;20222;-76
2022/08/01 13:20:24;;;;;;;7.85;2.60;;;;;;;;;;4956892;29;20622;-75
2022/08/01 13:22:53;;;;;;;5.85;2.20;;;;;;;;;;4956767;29;20607;-75
2022/08/01 13:25:22;;;;;;;5.82;2.78;;;;;;;;;;4953303;29;20254;-76
2022/08/01 13:28:08;;;;;;;8.25;2.50;;;;;;;;;;4937354;29;20223;-75
2022/08/01 13:30:37;;;;;;;7.00;2.70;;;;;;;;;;4955806;29;20206;-76
2022/08/01 13:33:06;;;;;;;5.18;2.33;;;;;;;;;;4960177;28;20201;-76
2022/08/01 13:35:36;;;;;;;4.78;2.10;;;;;;;;;;4971772;28;20291;-76
2022/08/01 13:38:05;;;;;;;7.15;2.38;;;;;;;;;;4955505;29;20241;-75
2022/08/01 13:40:33;;;;;;;6.78;2.63;;;;;;;;;;4956219;29;20233;-75
2022/08/01 13:43:02;;;;;;;5.80;2.50;;;;;;;;;;4956063;28;20210;-76
2022/08/01 13:45:31;;;;;;;4.80;2.47;;;;;;;;;;4958704;28;20659;-75
2022/08/01 13:48:00;;;;;;;5.40;2.30;;;;;;;;;;4960654;28;20754;-75
2022/08/01 13:50:47;;;;;;;3.97;2.40;;;;;;;;;;4954859;28;20644;-76
2022/08/01 13:53:35;;;;;;;6.60;2.53;;;;;;;;;;4957903;28;20427;-76
2022/08/01 13:56:04;;;;;;;9.93;2.30;;;;;;;;;;4955812;28;20656;-75
2022/08/01 13:58:32;;;;;;;4.97;2.05;;;;;;;;;;4954986;28;20230;-76
2022/08/01 14:01:01;;;;;;;4.35;1.80;;;;;;;;;;4951184;28;20203;-76
2022/08/01 14:03:33;;;;;;;6.90;2.20;;;;;;;;;;4955150;29;20660;-76
2022/08/01 14:06:03;;;;;;;7.03;2.22;;;;;;;;;;4953078;29;20610;-75
2022/08/01 14:08:31;;;;;;;5.50;2.50;;;;;;;;;;4955735;29;20234;-75
2022/08/01 14:11:00;;;;;;;5.60;2.20;;;;;;;;;;4955461;28;20281;-75
2022/08/01 14:13:28;;;;;;;5.60;2.10;;;;;;;;;;4953664;28;20230;-76
2022/08/01 14:16:04;;;;;;;8.50;2.47;;;;;;;;;;4955709;29;20206;-76
2022/08/01 14:18:32;;;;;;;5.38;2.22;;;;;;;;;;4951664;28;20223;-75
2022/08/01 14:21:06;;;;;;;6.95;2.22;;;;;;;;;;4936912;29;20615;-76
2022/08/01 14:23:35;;;;;;;5.28;2.50;;;;;;;;;;4937047;29;20214;-76
2022/08/01 14:26:03;;;;;;;6.53;2.55;;;;;;;;;;4936668;29;20211;-75
2022/08/01 14:28:43;;;;;;;4.75;2.30;;;;;;;;;;4952906;28;20288;-74
2022/08/01 14:31:11;;;;;;;7.35;2.28;;;;;;;;;;4945672;29;20203;-75
2022/08/01 14:33:40;;;;;;;7.30;2.50;;;;;;;;;;4949719;28;20235;-75
2022/08/01 14:36:09;;;;;;;6.40;2.47;;;;;;;;;;4944748;29;20207;-75
2022/08/01 14:38:58;;;;;;;11.57;2.67;;;;;;;;;;4942806;29;20265;-75
2022/08/01 14:41:28;;;;;;;6.70;2.67;;;;;;;;;;4954861;29;20880;-76
2022/08/01 14:43:59;;;;;;;6.03;2.50;;;;;;;;;;4950888;29;20211;-75
2022/08/01 14:46:27;;;;;;;7.03;2.70;;;;;;;;;;4954600;28;20739;-76
2022/08/01 14:48:58;;;;;;;7.13;2.47;;;;;;;;;;4954488;29;20219;-75
2022/08/01 14:51:32;;;;;;;5.90;2.55;;;;;;;;;;4954335;29;20248;-75
2022/08/01 14:54:01;;;;;;;6.22;2.80;;;;;;;;;;4955011;28;20210;-75
2022/08/01 14:56:31;;;;;;;8.30;2.67;;;;;;;;;;4948029;29;20234;-76
2022/08/01 14:59:02;;;;;;;7.07;2.70;;;;;;;;;;4946866;29;20286;-75
2022/08/01 15:01:48;;;;;;;6.15;2.70;;;;;;;;;;4950658;28;20370;-76
2022/08/01 15:04:17;;;;;;;7.35;2.78;;;;;;;;;;4957109;28;20218;-76
2022/08/01 15:06:47;;;;;;;6.18;2.70;;;;;;;;;;4951477;28;20207;-76
2022/08/01 15:09:16;;;;;;;7.93;2.83;;;;;;;;;;4955764;29;20656;-75